SSEC Globe Logo

Space Science and Engineering Center

Regional Terminal Forecasts

TAF AMD KMSN 150657Z 1507/1606 32008KT P6SM -SN SCT011
     OVC016 FM150800 32009KT P6SM SCT008 OVC015 FM150900
     31010KT P6SM BKN025 OVC060 FM151100 31010KT P6SM BKN035
     FM151500 29013G22KT P6SM SCT040 FM160000 27006KT P6SM
     FEW250=
TAF AMD KMKE 150833Z 1509/1612 31010KT P6SM -RA BKN011
     OVC040 TEMPO 1509/1511 6SM -RASN OVC009 FM151100
     30012G22KT P6SM SCT008 BKN025 FM151400 30012G22KT P6SM
     SCT025 BKN040 FM160200 27008KT P6SM SKC=
KGRB 150520Z 1506/1606 32009G14KT 6SM -SN BKN015 TEMPO
     1506/1508 3SM -SN BKN006 FM150800 30009G14KT P6SM
     BKN024 BKN100 FM151500 28016G26KT P6SM BKN028 FM152000
     27015G25KT P6SM SCT035 FM160000 24009KT P6SM SKC=
KAUW 150520Z 1506/1606 30005KT P6SM SCT035 OVC060 TEMPO
     1506/1510 BKN035 FM151000 29009KT P6SM BKN035 FM151500
     29015G25KT P6SM BKN028 FM152100 27012G22KT P6SM SCT035
     FM160000 24008KT P6SM SKC=
KEAU 150520Z 1506/1606 VRB03KT P6SM OVC040 FM151200 28009KT
     P6SM BKN050 FM152000 28012KT P6SM FEW090 FM152300
     25008KT P6SM FEW200 FM160200 22008KT P6SM FEW200=
KLSE 150520Z 1506/1606 33006KT P6SM BKN040 FM151400 28011KT
     P6SM SCT100 FM151900 26012KT P6SM SKC FM160100 22007KT
     P6SM SKC=
KDBQ 150520Z 1506/1606 35008KT P6SM -SN SCT008 OVC040 TEMPO
     1506/1508 5SM -SN BKN020 FM150800 32009KT P6SM BKN035
     FM151700 29013G20KT P6SM SCT040 FM160000 24006KT P6SM
     SKC=
TAF TAF AMD KRFD 150841Z 1509/1606 33011G17KT 6SM -RASN BR
     BKN007 OVC012 FM150930 32010KT P6SM BKN012 OVC025
     FM151130 31013G21KT P6SM SCT025 BKN100 FM151400
     29014G23KT P6SM SCT035 FM160000 26006KT P6SM SKC=
KORD 150841Z 1509/1612 32012G18KT 6SM -RA BR BKN008 OVC012
     TEMPO 1509/1510 3SM -RA BR OVC008 FM151100 31013G20KT
     P6SM SCT008 OVC015 FM151300 30015G24KT P6SM SCT025
     BKN100 FM160000 27008KT P6SM SKC=